Flight Track Log - Related Links

Times and Time Zones

All times are in EST time to prevent confusion due to time zone crossing. See the AAY894 flight status page for this flight to view local times or setup timezone preferences in your user account.

Time Position Orientation Groundspeed Altitude Reporting Facility
EST Latitude Longitude Course Direction KTS MPH feet Rate Location/Type
Thu 08:26:27 AM 27.9333 -82.6833 356° North 161 185 800  Level Tampa TRACON
Thu 08:27:27 AM 27.9667 -82.6667 24° Northeast 179 206 3,400 2,211 Climbing Tampa TRACON
Thu 08:28:00 AM 28.5708 -82.5512 North  Level Estimated
Thu 08:28:21 AM 28.0167 -82.6500 16° North 252 290 5,000  Level Tampa TRACON
Thu 08:29:09 AM 28.0833 -82.6500 360° North 250 288 7,600 2,588 Climbing Tampa TRACON
Thu 08:30:00 AM 28.7910 -82.5053 North  Level Estimated
Thu 08:30:03 AM 28.1500 -82.6333 12° North 263 303 9,400  Level Tampa TRACON
Thu 08:31:00 AM 28.9027 -82.5147 356° North  Level FlightAware Approximate
Thu 08:32:09 AM 28.3353 -82.6072 North 355 409 12,400  Level Jacksonville Center
Thu 08:33:09 AM 28.4397 -82.6022 North 369 425 14,800 2,350 Climbing Jacksonville Center
Thu 08:34:09 AM 28.5522 -82.5994 North 380 437 17,100 2,000 Climbing Jacksonville Center
Thu 08:35:09 AM 28.6650 -82.5944 North 392 451 18,800 1,500 Climbing Jacksonville Center
Thu 08:36:09 AM 28.7653 -82.5964 359° North 397 457 20,100 1,400 Climbing Jacksonville Center
Thu 08:37:09 AM 28.8842 -82.5892 North 408 470 21,600 1,200 Climbing Jacksonville Center
Thu 08:38:09 AM 29.0072 -82.5886 360° North 424 488 22,500 1,350 Climbing Jacksonville Center
Thu 08:39:09 AM 29.1325 -82.5858 North 438 504 24,300 1,650 Climbing Jacksonville Center
Thu 08:40:09 AM 29.2578 -82.5831 North 438 504 25,800 850 Climbing Jacksonville Center
Thu 08:41:09 AM 29.3831 -82.5781 North 438 504 26,000 1,200 Climbing Jacksonville Center
Thu 08:42:09 AM 29.5083 -82.5775 360° North 438 504 28,200 1,700 Climbing Jacksonville Center
Thu 08:43:09 AM 29.6314 -82.5678 North 438 504 29,400 1,200 Climbing Jacksonville Center
Thu 08:44:09 AM 29.7547 -82.5719 358° North 433 498 30,600 800 Climbing Jacksonville Center
Thu 08:45:09 AM 29.8756 -82.5619 North 438 504 31,000 200 Climbing Jacksonville Center
Thu 08:46:09 AM 30.0031 -82.5664 358° North 438 504 31,000 -50 Level Jacksonville Center
Thu 08:47:09 AM 30.1283 -82.5564 North 443 510 30,900 -50 Descending Jacksonville Center
Thu 08:48:09 AM 30.2494 -82.5608 358° North 443 510 30,900  Level Jacksonville Center
Thu 08:49:09 AM 30.3747 -82.5506 North 437 503 30,900 50 Level Jacksonville Center
Thu 08:50:09 AM 30.5103 -82.5550 358° North 445 512 31,000  Climbing Jacksonville Center
Thu 08:51:09 AM 30.6314 -82.5425 North 439 505 30,900  Descending Jacksonville Center
Thu 08:52:09 AM 30.7547 -82.5419 360° North 439 505 31,000  Climbing Jacksonville Center
Thu 08:53:09 AM 30.8778 -82.5344 North 439 505 30,900  Descending Jacksonville Center
Thu 08:54:09 AM 30.9989 -82.5314 North 439 505 31,000 50 Climbing Jacksonville Center
Thu 08:55:09 AM 31.1075 -82.5286 North 439 505 31,000  Level Jacksonville Center
Thu 08:56:09 AM 31.2306 -82.5208 North 428 493 31,000  Level Jacksonville Center
Thu 08:57:09 AM 31.3539 -82.5181 North 427 491 31,000  Level Jacksonville Center
Thu 08:58:09 AM 31.4728 -82.5078 North 432 497 31,000  Level Jacksonville Center
Thu 09:01:03 AM 31.8367 -82.4669 North 439 505 31,000  Level Atlanta Center
Thu 09:02:03 AM 31.9553 -82.4428 10° North 439 505 31,000  Level Atlanta Center
Thu 09:03:03 AM 32.0783 -82.4283 North 439 505 31,000  Level Atlanta Center
Thu 09:04:03 AM 32.1992 -82.4067 North 439 505 31,000  Level Atlanta Center
Thu 09:05:03 AM 32.3178 -82.3897 North 439 505 31,000  Level Atlanta Center
Thu 09:06:03 AM 32.4386 -82.3678 North 439 505 31,000  Level Atlanta Center
Thu 09:07:03 AM 32.5594 -82.3458 North 439 505 31,000  Level Atlanta Center
Thu 09:08:03 AM 32.6803 -82.3286 North 439 505 31,000  Level Atlanta Center
Thu 09:09:03 AM 32.7906 -82.3117 North 444 511 31,000  Level Atlanta Center
Thu 09:10:03 AM 32.9114 -82.2944 North 439 505 31,000  Level Atlanta Center
Thu 09:11:03 AM 33.0322 -82.2697 10° North 439 505 31,000  Level Atlanta Center
Thu 09:12:03 AM 33.1531 -82.2547 North 439 505 31,000  Level Atlanta Center
Thu 09:13:03 AM 33.2717 -82.2300 10° North 439 505 31,000  Level Atlanta Center
Thu 09:14:03 AM 33.3925 -82.2175 North 434 499 31,000  Level Atlanta Center
Thu 09:15:03 AM 33.5111 -82.1928 10° North 434 499 31,000  Level Atlanta Center
Thu 09:16:03 AM 33.6319 -82.1775 North 434 499 31,000  Level Atlanta Center
Thu 09:17:03 AM 33.7547 -82.1525 10° North 434 499 31,000  Level Atlanta Center
Thu 09:18:03 AM 33.8756 -82.1322 North 434 499 31,000  Level Atlanta Center
Thu 09:19:03 AM 34.0086 -82.1092 North 439 505 31,000  Level Atlanta Center
Thu 09:20:03 AM 34.1314 -82.0864 North 439 505 31,000  Level Atlanta Center
Thu 09:21:03 AM 34.2500 -82.0686 North 439 505 31,000  Level Atlanta Center
Thu 09:22:03 AM 34.3728 -82.0456 North 439 505 31,000 150 Level Atlanta Center
Thu 09:23:03 AM 34.4936 -82.0275 North 444 511 31,300 800 Climbing Atlanta Center
Thu 09:24:03 AM 34.6081 -82.0022 10° North 439 505 32,600 850 Climbing Atlanta Center
Thu 09:25:03 AM 34.7247 -81.9892 North 421 484 33,000 200 Climbing Atlanta Center
Thu 09:26:03 AM 34.8453 -81.9608 11° North 427 491 33,000  Level Atlanta Center
Thu 09:27:03 AM 34.9639 -81.9453 North 427 491 33,000  Level Atlanta Center
Thu 09:28:03 AM 35.0803 -81.9144 12° North 427 491 33,000  Level Atlanta Center
Thu 09:29:03 AM 35.2028 -81.8808 13° North 427 491 33,000  Level Atlanta Center
Thu 09:30:03 AM 35.3211 -81.8497 12° North 427 491 33,000  Level Atlanta Center
Thu 09:31:03 AM 35.4372 -81.8083 16° North 427 491 33,000  Level Atlanta Center
Thu 09:32:03 AM 35.5619 -81.7794 11° North 445 512 33,000  Level Atlanta Center
Thu 09:33:03 AM 35.6800 -81.7378 16° North 445 512 33,000  Level Atlanta Center
Thu 09:34:03 AM 35.7964 -81.7114 10° North 440 506 33,000  Level Atlanta Center
Thu 09:35:03 AM 35.9186 -81.6722 15° North 440 506 33,000  Level Atlanta Center
Thu 09:36:03 AM 36.0392 -81.6428 11° North 440 506 33,000  Level Atlanta Center
Thu 09:37:03 AM 36.1592 -81.6033 15° North 440 506 33,000  Level Atlanta Center
Thu 09:38:03 AM 36.2817 -81.5739 11° North 446 513 33,000  Level Atlanta Center
Thu 09:39:03 AM 36.4019 -81.5314 16° North 447 514 33,000  Level Atlanta Center
Thu 09:40:03 AM 36.5242 -81.5019 11° North 447 514 33,000  Level Atlanta Center
Thu 09:41:03 AM 36.6464 -81.4617 15° North 447 514 33,000  Level Atlanta Center
Thu 09:42:55 AM 36.8675 -81.3994 13° North 458 527 33,000  Level Indianapolis Center
Thu 09:43:57 AM 36.9864 -81.3636 14° North 452 520 33,000  Level Indianapolis Center
Thu 09:44:59 AM 37.1092 -81.3283 13° North 453 521 33,000  Level Indianapolis Center
Thu 09:46:01 AM 37.2539 -81.2836 14° North 456 525 33,000  Level Indianapolis Center
Thu 09:47:02 AM 37.3742 -81.2489 13° North 455 524 33,000  Level Indianapolis Center
Thu 09:48:04 AM 37.4917 -81.2106 15° North 448 516 33,000  Level Indianapolis Center
Thu 09:49:06 AM 37.6122 -81.1789 12° North 452 520 33,000  Level Indianapolis Center
Thu 09:50:08 AM 37.7586 -81.1306 15° North 460 529 33,000  Level Indianapolis Center
Thu 09:51:10 AM 37.8711 -81.1028 11° North 456 525 33,000  Level Indianapolis Center
Thu 09:52:12 AM 37.9958 -81.0592 15° North 462 532 33,000  Level Indianapolis Center
Thu 09:53:14 AM 38.1478 -81.0222 11° North 465 535 33,000  Level Indianapolis Center
Thu 09:54:16 AM 38.2744 -80.9794 15° North 472 543 33,000  Level Indianapolis Center
Thu 09:55:18 AM 38.4011 -80.9489 11° North 468 539 33,000  Level Indianapolis Center
Thu 09:56:20 AM 38.5256 -80.9036 16° North 466 536 33,000  Level Indianapolis Center
Thu 09:57:22 AM 38.6533 -80.8742 10° North 468 539 33,000  Level Indianapolis Center
Thu 09:58:24 AM 38.7803 -80.8319 15° North 472 543 33,000  Level Indianapolis Center
Thu 09:59:26 AM 38.9339 -80.7903 12° North 471 542 33,000  Level Indianapolis Center
Thu 10:00:28 AM 39.0583 -80.7481 15° North 466 536 33,000  Level Indianapolis Center
Thu 10:01:30 AM 39.1839 -80.7158 11° North 462 532 33,000  Level Indianapolis Center
Thu 10:02:31 AM 39.3092 -80.6733 15° North 465 535 33,000  Level Indianapolis Center
Thu 10:03:33 AM 39.4353 -80.6369 13° North 464 534 33,000  Level Indianapolis Center
Thu 10:04:35 AM 39.5617 -80.6000 13° North 465 535 33,000  Level Indianapolis Center
Thu 10:05:20 AM 39.6753 -80.5661 13° North 465 535 33,000 -710 Level Cleveland Center
Thu 10:07:24 AM 39.9247 -80.4847 14° North 458 527 31,000 -645 Descending Cleveland Center
Thu 10:08:26 AM 40.0503 -80.4561 10° North 456 525 31,000  Level Cleveland Center
Thu 10:09:28 AM 40.1739 -80.4114 15° North 460 529 31,000  Level Cleveland Center
Thu 10:10:29 AM 40.2997 -80.3800 11° North 458 527 31,000  Level Cleveland Center
Thu 10:11:31 AM 40.4289 -80.3322 16° North 462 532 31,000  Level Cleveland Center
Thu 10:12:33 AM 40.5556 -80.3022 10° North 463 533 31,000  Level Cleveland Center
Thu 10:13:35 AM 40.7050 -80.2481 15° North 465 535 31,000 -484 Level Cleveland Center
Thu 10:14:37 AM 40.8333 -80.2067 14° North 472 543 30,000 -1,220 Descending Cleveland Center
Thu 10:15:38 AM 40.9539 -80.1194 29° Northeast 488 562 28,500 -1,463 Descending Cleveland Center
Thu 10:16:40 AM 41.0803 -80.0356 27° Northeast 504 580 27,000 -1,403 Descending Cleveland Center
Thu 10:17:42 AM 41.2092 -79.9728 20° North 503 579 25,600 -1,403 Descending Cleveland Center
Thu 10:18:44 AM 41.3267 -79.8969 26° Northeast 478 550 24,100 -774 Descending Cleveland Center
Thu 10:19:46 AM 41.4706 -79.8247 21° North 460 529 24,000 -48 Descending Cleveland Center
Thu 10:20:48 AM 41.5903 -79.7589 22° Northeast 463 533 24,000 -194 Level Cleveland Center
Thu 10:21:50 AM 41.7178 -79.6917 21° North 466 536 23,600 -774 Descending Cleveland Center
Thu 10:22:52 AM 41.8319 -79.6314 21° North 462 532 22,400 -1,500 Descending Cleveland Center
Thu 10:23:54 AM 41.9450 -79.5697 22° Northeast 445 512 20,500 -1,887 Descending Cleveland Center
Thu 10:24:56 AM 42.0569 -79.5125 21° North 433 498 18,500 -1,984 Descending Cleveland Center
Thu 10:25:58 AM 42.1647 -79.4503 23° Northeast 424 488 16,400 -2,226 Descending Cleveland Center
Thu 10:27:00 AM 42.2900 -79.3892 20° North 398 458 13,900 -1,984 Descending Cleveland Center
Thu 10:28:02 AM 42.3847 -79.3367 22° Northeast 374 430 12,300 -1,355 Descending Cleveland Center
Thu 10:29:04 AM 42.4697 -79.2933 21° North 345 397 11,100 -1,258 Descending Cleveland Center
Thu 10:30:06 AM 42.5564 -79.2439 23° Northeast 306 352 9,700 -1,016 Descending Cleveland Center
Thu 10:31:08 AM 42.6347 -79.2031 21° North 292 336 9,000 -339 Descending Cleveland Center
Thu 10:32:10 AM 42.7131 -79.1583 23° Northeast 292 336 9,000 -290 Level Cleveland Center
Thu 10:33:12 AM 42.7906 -79.1153 22° Northeast 291 335 8,400 -1,016 Descending Cleveland Center
Thu 10:34:14 AM 42.8689 -79.0689 23° Northeast 294 338 6,900 -1,452 Descending Cleveland Center
Thu 10:35:16 AM 42.9269 -79.0025 40° Northeast 281 323 5,400 -1,392 Descending Cleveland Center
Thu 10:36:19 AM 42.9914 -78.9358 37° Northeast 280 322 4,000 -1,104 Descending Cleveland Center
Thu 10:37:21 AM 43.0536 -78.8783 34° Northeast 262 302 3,100 -1,036 Descending Cleveland Center
Thu 10:38:09 AM 43.1000 -78.8500 24° Northeast 203 234 2,100 -1,056 Descending Buffalo TRACON
Thu 10:39:09 AM 43.1167 -78.9000 295° West 120 138 1,200 -900 Descending Buffalo TRACON
Thu 10:41:00 AM 43.1000 -78.9333 270° West  Level FlightAware Approximate

Login

Don't have an account? Register now (free) for customized features, flight alerts, and more!